createdAt,value
2018-01-20T00:00:39.421Z,2.40
2018-01-20T00:03:07.829Z,2.37
2018-01-20T00:05:36.353Z,2.30
2018-01-20T00:08:04.881Z,2.31
2018-01-20T00:10:44.794Z,2.29
2018-01-20T00:13:13.241Z,2.18
2018-01-20T00:15:41.684Z,1.89
2018-01-20T00:18:10.101Z,1.88
2018-01-20T00:20:38.556Z,1.96
2018-01-20T00:23:07.045Z,1.89
2018-01-20T00:25:35.570Z,1.86
2018-01-20T00:28:03.976Z,1.86
2018-01-20T00:30:32.515Z,1.93
2018-01-20T00:33:00.997Z,2.00
2018-01-20T00:35:29.386Z,2.01
2018-01-20T00:37:57.816Z,2.02
2018-01-20T00:40:26.216Z,1.91
2018-01-20T00:42:54.657Z,1.92
2018-01-20T00:45:23.150Z,1.91
2018-01-20T00:47:51.656Z,1.68
2018-01-20T00:50:20.105Z,1.56
2018-01-20T00:52:48.504Z,1.48
2018-01-20T00:55:16.941Z,1.34
2018-01-20T00:57:45.397Z,1.55
2018-01-20T01:00:13.909Z,1.31
2018-01-20T01:02:42.455Z,1.49
2018-01-20T01:05:10.913Z,1.54
2018-01-20T01:07:39.366Z,1.43
2018-01-20T01:10:07.800Z,1.53
2018-01-20T01:12:36.290Z,1.59
2018-01-20T01:15:04.738Z,1.63
2018-01-20T01:17:33.132Z,1.74
2018-01-20T01:20:01.590Z,1.70
2018-01-20T01:22:30.071Z,1.60
2018-01-20T01:24:58.541Z,1.51
2018-01-20T01:27:26.970Z,1.45
2018-01-20T01:29:55.440Z,1.42
2018-01-20T01:32:23.887Z,1.37
2018-01-20T01:34:52.320Z,1.05
2018-01-20T01:37:20.742Z,1.22
2018-01-20T01:39:49.173Z,1.34
2018-01-20T01:42:17.665Z,1.55
2018-01-20T01:44:46.157Z,1.49
2018-01-20T01:47:14.631Z,1.57
2018-01-20T01:49:43.069Z,1.43
2018-01-20T01:52:11.525Z,1.30
2018-01-20T01:54:39.973Z,1.41
2018-01-20T01:57:08.448Z,1.60
2018-01-20T01:59:36.837Z,1.67
2018-01-20T02:02:05.268Z,1.68
2018-01-20T02:04:33.695Z,1.75
2018-01-20T02:07:02.197Z,1.47
2018-01-20T02:09:30.620Z,1.68
2018-01-20T02:11:59.068Z,1.63
2018-01-20T02:14:27.630Z,1.63
2018-01-20T02:16:56.073Z,1.63
2018-01-20T02:19:24.477Z,1.48
2018-01-20T02:21:52.989Z,1.52
2018-01-20T02:24:21.480Z,1.47
2018-01-20T02:26:49.941Z,1.66
2018-01-20T02:29:18.502Z,1.78
2018-01-20T02:31:46.889Z,1.85
2018-01-20T02:34:15.316Z,1.87
2018-01-20T02:36:43.826Z,1.89
2018-01-20T02:39:12.233Z,1.86
2018-01-20T02:41:40.686Z,1.85
2018-01-20T02:44:09.177Z,1.67
2018-01-20T02:46:37.679Z,1.71
2018-01-20T02:49:06.108Z,1.76
2018-01-20T02:51:34.509Z,1.90
2018-01-20T02:54:02.969Z,1.94
2018-01-20T02:56:31.392Z,1.92
2018-01-20T02:58:59.814Z,1.97
2018-01-20T03:01:28.261Z,1.88
2018-01-20T03:03:56.716Z,1.97
2018-01-20T03:06:25.144Z,1.95
2018-01-20T03:08:53.607Z,1.86
2018-01-20T03:11:22.106Z,1.88
2018-01-20T03:13:50.597Z,1.79
2018-01-20T03:16:18.989Z,1.83
2018-01-20T03:18:47.460Z,1.82
2018-01-20T03:21:15.859Z,1.80
2018-01-20T03:23:44.304Z,1.70
2018-01-20T03:26:12.708Z,1.71
2018-01-20T03:28:41.140Z,1.68
2018-01-20T03:31:09.537Z,1.60
2018-01-20T03:33:37.985Z,1.55
2018-01-20T03:36:06.428Z,1.54
2018-01-20T03:38:34.930Z,1.54
2018-01-20T03:41:03.384Z,1.43
2018-01-20T03:43:31.817Z,1.45
2018-01-20T03:46:00.205Z,1.42
2018-01-20T03:48:28.643Z,1.32
2018-01-20T03:50:57.161Z,1.35
2018-01-20T03:53:25.684Z,1.35
2018-01-20T03:55:54.129Z,1.31
2018-01-20T03:58:22.538Z,1.32
2018-01-20T04:00:51.079Z,1.28
2018-01-20T04:03:19.582Z,1.15
2018-01-20T04:05:48.125Z,1.20
2018-01-20T04:08:16.561Z,1.22
2018-01-20T04:10:45.065Z,1.23
2018-01-20T04:13:13.512Z,1.21
2018-01-20T04:15:42.040Z,1.20
2018-01-20T04:18:10.513Z,1.19
2018-01-20T04:20:38.932Z,1.18
2018-01-20T04:23:07.449Z,1.16
2018-01-20T04:25:35.894Z,1.14
2018-01-20T04:28:04.410Z,1.13
2018-01-20T04:30:32.861Z,1.14
2018-01-20T04:33:01.309Z,1.15
2018-01-20T04:35:29.773Z,1.15
2018-01-20T04:37:58.250Z,1.10
2018-01-20T04:40:26.713Z,1.11
2018-01-20T04:42:55.233Z,1.10
2018-01-20T04:45:23.689Z,1.09
2018-01-20T04:47:52.124Z,1.10
2018-01-20T04:50:20.601Z,1.09
2018-01-20T04:52:49.072Z,1.02
2018-01-20T04:55:17.489Z,0.99
2018-01-20T04:57:45.997Z,1.03
2018-01-20T05:00:14.510Z,0.98
2018-01-20T05:02:43.051Z,0.98
2018-01-20T05:05:11.544Z,0.92
2018-01-20T05:07:40.046Z,0.72
2018-01-20T05:10:08.460Z,0.83
2018-01-20T05:12:36.928Z,0.90
2018-01-20T05:15:05.459Z,0.93
2018-01-20T05:17:33.947Z,0.98
2018-01-20T05:20:02.348Z,0.95
2018-01-20T05:22:30.788Z,0.81
2018-01-20T05:24:59.193Z,0.54
2018-01-20T05:27:27.636Z,0.74
2018-01-20T05:29:56.145Z,0.81
2018-01-20T05:32:24.591Z,0.77
2018-01-20T05:34:53.009Z,0.72
2018-01-20T05:37:21.462Z,0.67
2018-01-20T05:39:49.905Z,0.70
2018-01-20T05:42:18.384Z,0.84
2018-01-20T05:44:46.822Z,0.79
2018-01-20T05:47:15.222Z,0.80
2018-01-20T05:49:43.742Z,0.98
2018-01-20T05:52:12.220Z,1.08
2018-01-20T05:54:40.685Z,1.12
2018-01-20T05:57:09.125Z,1.05
2018-01-20T05:59:37.627Z,1.17
2018-01-20T06:02:06.129Z,1.22
2018-01-20T06:04:34.601Z,1.30
2018-01-20T06:07:03.054Z,1.34
2018-01-20T06:09:31.557Z,1.17
2018-01-20T06:11:59.992Z,1.21
2018-01-20T06:14:28.396Z,1.42
2018-01-20T06:16:56.909Z,1.38
2018-01-20T06:19:25.357Z,1.42
2018-01-20T06:21:53.789Z,1.50
2018-01-20T06:24:22.218Z,1.46
2018-01-20T06:26:50.724Z,1.46
2018-01-20T06:29:19.140Z,1.43
2018-01-20T06:31:47.574Z,1.28
2018-01-20T06:34:16.033Z,1.49
2018-01-20T06:36:44.481Z,1.75
2018-01-20T06:39:12.888Z,1.91
2018-01-20T06:41:41.409Z,1.98
2018-01-20T06:44:09.805Z,1.86
2018-01-20T06:46:38.259Z,1.66
2018-01-20T06:49:06.653Z,1.80
2018-01-20T06:51:35.185Z,1.80
2018-01-20T06:54:03.617Z,1.48
2018-01-20T06:56:32.080Z,1.60
2018-01-20T06:59:00.525Z,1.66
2018-01-20T07:01:29.004Z,1.73
2018-01-20T07:03:57.508Z,1.50
2018-01-20T07:06:25.935Z,1.48
2018-01-20T07:08:54.393Z,1.77
2018-01-20T07:11:22.839Z,1.97
2018-01-20T07:13:51.254Z,2.30
2018-01-20T07:16:19.781Z,2.38
2018-01-20T07:18:48.261Z,2.57
2018-01-20T07:21:16.694Z,2.60
2018-01-20T07:23:45.143Z,2.65
2018-01-20T07:26:13.600Z,2.95
2018-01-20T07:28:42.093Z,3.21
2018-01-20T07:31:10.548Z,3.40
2018-01-20T07:33:38.976Z,3.45
2018-01-20T07:36:07.405Z,3.49
2018-01-20T07:38:35.837Z,3.66
2018-01-20T07:41:04.242Z,3.73
2018-01-20T07:43:32.690Z,3.95
2018-01-20T07:46:01.153Z,4.07
2018-01-20T07:48:29.584Z,3.93
2018-01-20T07:50:57.976Z,4.18
2018-01-20T07:53:26.465Z,4.22
2018-01-20T07:55:54.873Z,4.30
2018-01-20T07:58:23.366Z,4.40
2018-01-20T08:00:51.853Z,4.55
2018-01-20T08:03:20.293Z,4.70
2018-01-20T08:05:48.728Z,4.88
2018-01-20T08:08:17.173Z,5.02
2018-01-20T08:10:45.633Z,4.94
2018-01-20T08:13:14.131Z,5.09
2018-01-20T08:15:42.506Z,5.22
2018-01-20T08:18:10.948Z,5.27
2018-01-20T08:20:39.493Z,5.31
2018-01-20T08:23:07.989Z,5.26
2018-01-20T08:25:36.428Z,4.78
2018-01-20T08:28:04.821Z,4.84
2018-01-20T08:30:33.333Z,4.96
2018-01-20T08:33:01.797Z,5.11
2018-01-20T08:35:30.216Z,5.22
2018-01-20T08:37:58.719Z,4.94
2018-01-20T08:40:27.112Z,5.27
2018-01-20T08:42:55.549Z,5.39
2018-01-20T08:45:24.005Z,5.34
2018-01-20T08:47:52.445Z,5.61
2018-01-20T08:50:20.873Z,5.72
2018-01-20T08:52:49.390Z,5.70
2018-01-20T08:55:17.822Z,5.59
2018-01-20T08:57:46.298Z,5.78
2018-01-20T09:00:14.733Z,5.98
2018-01-20T09:02:43.257Z,6.01
2018-01-20T09:05:11.657Z,5.75
2018-01-20T09:07:40.134Z,6.10
2018-01-20T09:10:08.610Z,6.16
2018-01-20T09:12:37.207Z,6.27
2018-01-20T09:15:05.666Z,6.06
2018-01-20T09:17:34.082Z,6.13
2018-01-20T09:20:02.542Z,6.06
2018-01-20T09:22:31.007Z,5.79
2018-01-20T09:24:59.389Z,6.09
2018-01-20T09:27:27.816Z,6.31
2018-01-20T09:29:56.298Z,5.99
2018-01-20T09:32:24.732Z,6.15
2018-01-20T09:34:53.137Z,6.33
2018-01-20T09:37:21.579Z,6.44
2018-01-20T09:39:50.018Z,6.67
2018-01-20T09:42:18.416Z,6.77
2018-01-20T09:44:46.857Z,6.83
2018-01-20T09:47:15.313Z,6.93
2018-01-20T09:49:43.765Z,7.03
2018-01-20T09:52:12.265Z,7.07
2018-01-20T09:54:40.756Z,6.67
2018-01-20T09:57:09.224Z,6.52
2018-01-20T09:59:37.628Z,6.87
2018-01-20T10:02:06.073Z,7.03
2018-01-20T10:04:34.465Z,6.98
2018-01-20T10:07:02.920Z,6.96
2018-01-20T10:09:31.379Z,6.73
2018-01-20T10:11:59.774Z,6.99
2018-01-20T10:14:28.221Z,7.07
2018-01-20T10:16:56.625Z,7.14
2018-01-20T10:19:25.081Z,6.96
2018-01-20T10:21:53.545Z,6.83
2018-01-20T10:24:21.977Z,7.05
2018-01-20T10:26:50.382Z,6.61
2018-01-20T10:29:18.852Z,6.94
2018-01-20T10:31:47.260Z,6.85
2018-01-20T10:34:15.774Z,7.11
2018-01-20T10:36:44.213Z,7.32
2018-01-20T10:39:12.760Z,7.50
2018-01-20T10:41:41.170Z,7.46
2018-01-20T10:44:09.608Z,7.43
2018-01-20T10:46:38.010Z,7.63
2018-01-20T10:49:06.505Z,7.75
2018-01-20T10:51:34.976Z,7.89
2018-01-20T10:54:03.428Z,7.99
2018-01-20T10:56:31.845Z,8.09
2018-01-20T10:59:00.238Z,8.19
2018-01-20T11:01:28.701Z,8.28
2018-01-20T11:03:57.126Z,8.19
2018-01-20T11:06:25.536Z,8.30
2018-01-20T11:08:53.972Z,8.39
2018-01-20T11:11:22.413Z,8.56
2018-01-20T11:13:50.904Z,8.42
2018-01-20T11:16:19.336Z,8.40
2018-01-20T11:18:47.820Z,8.00
2018-01-20T11:21:16.291Z,8.47
2018-01-20T11:23:44.740Z,8.58
2018-01-20T11:26:13.132Z,8.58
2018-01-20T11:28:41.600Z,8.23
2018-01-20T11:31:10.053Z,8.47
2018-01-20T11:33:38.577Z,8.62
2018-01-20T11:36:07.013Z,8.64
2018-01-20T11:38:35.449Z,8.86
2018-01-20T11:41:03.902Z,8.95
2018-01-20T11:43:32.346Z,8.91
2018-01-20T11:46:00.801Z,8.79
2018-01-20T11:48:29.297Z,8.88
2018-01-20T11:50:57.752Z,9.05
2018-01-20T11:53:26.188Z,8.73
2018-01-20T11:55:54.641Z,8.36
2018-01-20T11:58:23.076Z,8.64
2018-01-20T12:00:51.465Z,8.81
2018-01-20T12:03:19.908Z,8.79
2018-01-20T12:05:48.356Z,8.73
2018-01-20T12:08:16.833Z,8.52
2018-01-20T12:10:45.287Z,8.36
2018-01-20T12:13:13.793Z,8.53
2018-01-20T12:15:42.205Z,8.61
2018-01-20T12:18:10.697Z,8.68
2018-01-20T12:20:39.196Z,8.52
2018-01-20T12:23:07.727Z,8.51
2018-01-20T12:25:36.202Z,8.75
2018-01-20T12:28:04.735Z,8.85
2018-01-20T12:30:33.197Z,8.91
2018-01-20T12:33:01.721Z,8.88
2018-01-20T12:35:30.152Z,8.89
2018-01-20T12:37:58.612Z,8.90
2018-01-20T12:40:27.093Z,8.86
2018-01-20T12:42:55.552Z,8.78
2018-01-20T12:45:24.042Z,7.97
2018-01-20T12:47:52.480Z,8.40
2018-01-20T12:50:20.907Z,8.54
2018-01-20T12:52:49.469Z,8.57
2018-01-20T12:55:17.929Z,8.60
2018-01-20T12:57:46.385Z,8.40
2018-01-20T13:00:14.820Z,8.53
2018-01-20T13:02:43.256Z,8.62
2018-01-20T13:05:11.688Z,8.64
2018-01-20T13:07:40.146Z,8.58
2018-01-20T13:10:08.584Z,8.60
2018-01-20T13:12:37.001Z,8.63
2018-01-20T13:15:05.519Z,8.67
2018-01-20T13:17:33.952Z,8.59
2018-01-20T13:20:02.396Z,8.46
2018-01-20T13:22:30.793Z,8.42
2018-01-20T13:24:59.305Z,8.45
2018-01-20T13:27:27.769Z,8.43
2018-01-20T13:29:56.197Z,8.46
2018-01-20T13:32:24.633Z,8.43
2018-01-20T13:34:53.032Z,8.37
2018-01-20T13:37:21.473Z,8.41
2018-01-20T13:39:49.933Z,8.39
2018-01-20T13:42:18.374Z,8.36
2018-01-20T13:44:46.870Z,8.33
2018-01-20T13:47:15.336Z,8.31
2018-01-20T13:49:43.821Z,8.26
2018-01-20T13:52:12.227Z,8.36
2018-01-20T13:54:40.765Z,7.71
2018-01-20T13:57:09.221Z,8.02
2018-01-20T13:59:37.686Z,8.15
2018-01-20T14:02:06.163Z,8.18
2018-01-20T14:04:34.566Z,7.96
2018-01-20T14:07:03.017Z,8.07
2018-01-20T14:09:31.428Z,8.07
2018-01-20T14:11:59.825Z,7.91
2018-01-20T14:14:28.327Z,7.97
2018-01-20T14:16:56.822Z,7.97
2018-01-20T14:19:25.275Z,7.90
2018-01-20T14:21:53.748Z,7.71
2018-01-20T14:24:22.181Z,7.86
2018-01-20T14:26:50.569Z,7.82
2018-01-20T14:29:19.040Z,7.70
2018-01-20T14:31:47.479Z,7.63
2018-01-20T14:34:15.877Z,7.52
2018-01-20T14:36:45.204Z,7.57
2018-01-20T14:39:13.657Z,7.65
2018-01-20T14:41:42.127Z,7.56
2018-01-20T14:44:10.643Z,7.60
2018-01-20T14:46:39.134Z,7.55
2018-01-20T14:49:07.534Z,7.58
2018-01-20T14:51:35.982Z,7.58
2018-01-20T14:54:04.502Z,7.46
2018-01-20T14:56:32.974Z,7.47
2018-01-20T14:59:01.483Z,7.44
2018-01-20T15:01:29.981Z,7.42
2018-01-20T15:03:58.484Z,7.40
2018-01-20T15:06:26.930Z,7.37
2018-01-20T15:08:55.418Z,7.32
2018-01-20T15:11:23.919Z,7.22
2018-01-20T15:13:52.464Z,7.21
2018-01-20T15:16:20.884Z,7.19
2018-01-20T15:18:49.330Z,7.16
2018-01-20T15:21:17.747Z,7.14
2018-01-20T15:23:46.227Z,7.08
2018-01-20T15:26:14.689Z,7.04
2018-01-20T15:28:43.133Z,6.78
2018-01-20T15:31:11.529Z,6.69
2018-01-20T15:33:40.041Z,6.70
2018-01-20T15:36:08.568Z,6.58
2018-01-20T15:38:36.996Z,6.47
2018-01-20T15:41:05.425Z,6.36
2018-01-20T15:43:33.818Z,6.41
2018-01-20T15:46:02.327Z,6.28
2018-01-20T15:48:30.790Z,6.40
2018-01-20T15:50:59.190Z,6.40
2018-01-20T15:53:27.648Z,6.26
2018-01-20T15:55:56.094Z,6.15
2018-01-20T15:58:24.540Z,6.30
2018-01-20T16:00:53.073Z,6.36
2018-01-20T16:03:21.494Z,6.42
2018-01-20T16:05:49.896Z,6.37
2018-01-20T16:08:18.324Z,6.30
2018-01-20T16:10:46.748Z,6.14
2018-01-20T16:13:15.195Z,6.13
2018-01-20T16:15:43.592Z,6.19
2018-01-20T16:18:12.033Z,6.20
2018-01-20T16:20:40.452Z,6.27
2018-01-20T16:23:08.894Z,6.26
2018-01-20T16:25:37.294Z,6.30
2018-01-20T16:28:05.761Z,6.33
2018-01-20T16:30:34.301Z,6.36
2018-01-20T16:33:02.703Z,6.38
2018-01-20T16:35:31.127Z,6.28
2018-01-20T16:37:59.585Z,6.32
2018-01-20T16:40:28.036Z,6.41
2018-01-20T16:42:56.525Z,6.23
2018-01-20T16:45:24.916Z,6.28
2018-01-20T16:47:53.409Z,6.39
2018-01-20T16:50:21.881Z,6.24
2018-01-20T16:52:50.369Z,6.33
2018-01-20T16:55:18.823Z,6.24
2018-01-20T16:57:47.216Z,6.28
2018-01-20T17:00:15.612Z,6.23
2018-01-20T17:02:44.066Z,6.05
2018-01-20T17:05:12.527Z,6.20
2018-01-20T17:07:40.989Z,6.09
2018-01-20T17:10:09.363Z,6.18
2018-01-20T17:12:37.796Z,6.35
2018-01-20T17:15:06.287Z,6.39
2018-01-20T17:17:34.749Z,6.47
2018-01-20T17:20:03.237Z,6.44
2018-01-20T17:22:31.689Z,6.50
2018-01-20T17:25:00.156Z,6.59
2018-01-20T17:27:28.588Z,6.67
2018-01-20T17:29:57.053Z,6.50
2018-01-20T17:32:25.492Z,6.61
2018-01-20T17:34:53.925Z,6.59
2018-01-20T17:37:22.419Z,6.65
2018-01-20T17:39:50.885Z,6.68
2018-01-20T17:42:19.281Z,6.68
2018-01-20T17:44:47.777Z,6.66
2018-01-20T17:47:16.227Z,6.59
2018-01-20T17:49:44.713Z,6.48
2018-01-20T17:52:13.141Z,6.43
2018-01-20T17:54:41.618Z,6.35
2018-01-20T17:57:10.089Z,6.27
2018-01-20T17:59:38.552Z,6.25
2018-01-20T18:02:06.987Z,6.10
2018-01-20T18:04:35.412Z,6.09
2018-01-20T18:07:03.818Z,6.04
2018-01-20T18:09:32.353Z,5.99
2018-01-20T18:12:00.830Z,6.05
2018-01-20T18:14:29.317Z,5.81
2018-01-20T18:16:57.773Z,5.79
2018-01-20T18:19:26.261Z,5.85
2018-01-20T18:21:54.732Z,5.61
2018-01-20T18:24:23.212Z,5.45
2018-01-20T18:26:51.678Z,5.14
2018-01-20T18:29:20.060Z,5.02
2018-01-20T18:31:48.550Z,4.68
2018-01-20T18:34:16.932Z,4.62
2018-01-20T18:36:45.317Z,4.25
2018-01-20T18:39:13.726Z,3.84
2018-01-20T18:41:42.113Z,3.92
2018-01-20T18:44:10.534Z,3.92
2018-01-20T18:46:38.953Z,3.77
2018-01-20T18:49:07.344Z,3.79
2018-01-20T18:51:35.775Z,4.01
2018-01-20T18:54:04.166Z,3.99
2018-01-20T18:56:32.694Z,4.09
2018-01-20T18:59:01.138Z,4.15
2018-01-20T19:01:29.524Z,4.29
2018-01-20T19:03:57.960Z,4.33
2018-01-20T19:06:26.466Z,4.42
2018-01-20T19:08:54.949Z,4.38
2018-01-20T19:11:23.372Z,4.38
2018-01-20T19:13:51.760Z,4.45
2018-01-20T19:16:20.232Z,4.52
2018-01-20T19:18:48.660Z,4.57
2018-01-20T19:21:17.089Z,4.54
2018-01-20T19:23:45.485Z,4.65
2018-01-20T19:26:13.977Z,4.68
2018-01-20T19:28:42.481Z,4.67
2018-01-20T19:31:10.905Z,4.73
2018-01-20T19:33:39.345Z,4.80
2018-01-20T19:36:07.784Z,4.71
2018-01-20T19:38:36.239Z,4.76
2018-01-20T19:41:04.701Z,4.71
2018-01-20T19:43:33.117Z,4.74
2018-01-20T19:46:01.601Z,4.92
2018-01-20T19:48:29.986Z,4.95
2018-01-20T19:50:58.474Z,5.15
2018-01-20T19:53:26.918Z,5.27
2018-01-20T19:55:55.305Z,5.25
2018-01-20T19:58:23.739Z,5.34
2018-01-20T20:00:52.179Z,5.33
2018-01-20T20:03:20.596Z,5.33
2018-01-20T20:05:49.032Z,5.36
2018-01-20T20:08:17.434Z,5.32
2018-01-20T20:10:45.881Z,5.43
2018-01-20T20:13:14.368Z,5.55
2018-01-20T20:15:42.805Z,5.55
2018-01-20T20:18:11.208Z,5.60
2018-01-20T20:20:39.664Z,5.57
2018-01-20T20:23:08.117Z,5.61
2018-01-20T20:25:36.499Z,5.52
2018-01-20T20:28:04.981Z,5.57
2018-01-20T20:30:33.377Z,5.59
2018-01-20T20:33:01.796Z,5.55
2018-01-20T20:35:30.217Z,5.47
2018-01-20T20:37:58.775Z,5.24
2018-01-20T20:40:27.166Z,5.30
2018-01-20T20:42:55.549Z,5.18
2018-01-20T20:45:23.978Z,5.22
2018-01-20T20:47:52.417Z,5.26
2018-01-20T20:50:20.902Z,5.15
2018-01-20T20:52:49.328Z,5.19
2018-01-20T20:55:17.776Z,5.18
2018-01-20T20:57:46.196Z,5.25
2018-01-20T21:00:14.685Z,5.14
2018-01-20T21:02:43.149Z,5.19
2018-01-20T21:05:11.573Z,5.23
2018-01-20T21:07:40.009Z,5.18
2018-01-20T21:10:08.461Z,5.23
2018-01-20T21:12:36.917Z,5.25
2018-01-20T21:15:05.352Z,5.23
2018-01-20T21:17:33.815Z,5.21
2018-01-20T21:20:02.219Z,5.05
2018-01-20T21:22:30.681Z,5.14
2018-01-20T21:24:59.085Z,5.07
2018-01-20T21:27:27.624Z,5.14
2018-01-20T21:29:56.022Z,5.11
2018-01-20T21:32:24.501Z,5.05
2018-01-20T21:34:52.992Z,5.14
2018-01-20T21:37:21.425Z,5.12
2018-01-20T21:39:49.812Z,5.18
2018-01-20T21:42:18.231Z,4.98
2018-01-20T21:44:46.642Z,5.09
2018-01-20T21:47:15.024Z,5.08
2018-01-20T21:49:43.437Z,5.14
2018-01-20T21:52:11.857Z,5.13
2018-01-20T21:54:40.295Z,5.12
2018-01-20T21:57:08.716Z,5.06
2018-01-20T21:59:37.118Z,5.06
2018-01-20T22:02:05.536Z,5.04
2018-01-20T22:04:33.937Z,4.91
2018-01-20T22:07:02.367Z,4.83
2018-01-20T22:09:30.809Z,4.87
2018-01-20T22:11:59.248Z,4.86
2018-01-20T22:14:27.636Z,4.68
2018-01-20T22:16:56.206Z,4.84
2018-01-20T22:19:24.646Z,4.88
2018-01-20T22:21:53.013Z,4.91
2018-01-20T22:24:21.514Z,4.96
2018-01-20T22:26:49.967Z,4.97
2018-01-20T22:29:18.338Z,4.92
2018-01-20T22:31:46.813Z,5.02
2018-01-20T22:34:15.197Z,5.05
2018-01-20T22:36:43.673Z,5.12
2018-01-20T22:39:12.096Z,5.14
2018-01-20T22:41:40.545Z,5.19
2018-01-20T22:44:08.944Z,5.20
2018-01-20T22:46:37.454Z,5.18
2018-01-20T22:49:05.869Z,5.19
2018-01-20T22:51:34.294Z,5.18
2018-01-20T22:54:02.683Z,5.11
2018-01-20T22:56:31.075Z,5.08
2018-01-20T22:58:59.500Z,5.05
2018-01-20T23:01:27.978Z,4.98
2018-01-20T23:03:56.384Z,4.89
2018-01-20T23:06:24.777Z,4.88
2018-01-20T23:08:53.197Z,4.72
2018-01-20T23:11:21.576Z,4.74
2018-01-20T23:13:50.059Z,4.74
2018-01-20T23:16:18.481Z,4.71
2018-01-20T23:18:46.973Z,4.67
2018-01-20T23:21:15.349Z,4.66
2018-01-20T23:23:43.768Z,4.73
2018-01-20T23:26:12.147Z,4.74
2018-01-20T23:28:40.580Z,4.73
2018-01-20T23:31:09.112Z,4.73
2018-01-20T23:33:37.541Z,4.73
2018-01-20T23:36:06.013Z,4.88
2018-01-20T23:38:34.439Z,4.89
2018-01-20T23:41:02.824Z,4.93
2018-01-20T23:43:31.260Z,4.98
2018-01-20T23:45:59.641Z,5.01
2018-01-20T23:48:28.110Z,5.03
2018-01-20T23:50:56.638Z,4.96
2018-01-20T23:53:25.022Z,4.90
2018-01-20T23:55:53.441Z,4.91
2018-01-20T23:58:21.853Z,4.87
